Time;durP1;ratioP1;P1;durP2;ratioP2;P2;SDS_P1;SDS_P2;PMS_P1;PMS_P2;Temp;Humidity;BMP_temperature;BMP_pressure;BME280_temperature;BME280_humidity;BME280_pressure;Samples;Min_cycle;Max_cycle;Signal;HPM_P1;HPM_P2
2021/01/27 00:00:14;;;;;;;3.42;1.50;;;6.40;96.30;;;;;;4732201;30;20105;-77
2021/01/27 00:02:40;;;;;;;2.28;0.93;;;6.40;96.20;;;;;;4734032;30;20079;-77
2021/01/27 00:05:09;;;;;;;4.40;0.90;;;6.40;96.40;;;;;;4733327;30;20495;-78
2021/01/27 00:07:35;;;;;;;2.53;1.25;;;6.40;96.40;;;;;;4733187;30;20025;-78
2021/01/27 00:10:01;;;;;;;6.32;1.10;;;6.40;96.70;;;;;;4732556;30;20095;-77
2021/01/27 00:12:27;;;;;;;2.45;0.90;;;6.40;96.90;;;;;;4730856;30;20380;-77
2021/01/27 00:14:53;;;;;;;5.60;1.45;;;6.40;97.00;;;;;;4730824;30;20066;-76
2021/01/27 00:17:19;;;;;;;1.75;1.00;;;6.40;97.30;;;;;;4731628;30;20040;-77
2021/01/27 00:19:46;;;;;;;2.60;1.30;;;6.30;97.00;;;;;;4731870;30;20040;-77
2021/01/27 00:22:12;;;;;;;1.50;0.88;;;6.40;96.60;;;;;;4730674;30;20575;-77
2021/01/27 00:24:38;;;;;;;3.58;1.05;;;6.40;96.50;;;;;;4732937;30;20456;-77
2021/01/27 00:27:05;;;;;;;2.75;0.98;;;6.40;96.00;;;;;;4731898;30;20040;-77
2021/01/27 00:29:32;;;;;;;2.10;0.80;;;6.30;96.00;;;;;;4731938;30;20029;-77
2021/01/27 00:31:58;;;;;;;4.60;1.30;;;6.40;95.00;;;;;;4732186;30;20036;-77
2021/01/27 00:34:24;;;;;;;2.40;0.82;;;6.40;94.80;;;;;;4732497;30;20032;-77
2021/01/27 00:36:51;;;;;;;1.20;0.52;;;6.50;94.60;;;;;;4731991;30;20048;-77
2021/01/27 00:39:18;;;;;;;6.90;1.20;;;6.50;94.60;;;;;;4732170;30;20036;-75
2021/01/27 00:41:44;;;;;;;7.82;0.68;;;6.50;94.50;;;;;;4731934;30;20495;-75
2021/01/27 00:44:10;;;;;;;3.42;0.80;;;6.50;94.80;;;;;;4733486;30;20032;-77
2021/01/27 00:46:37;;;;;;;1.75;1.00;;;6.60;94.70;;;;;;4730887;30;20037;-76
2021/01/27 00:49:03;;;;;;;2.25;0.80;;;6.60;94.50;;;;;;4729691;30;20116;-75
2021/01/27 00:51:29;;;;;;;1.90;0.90;;;6.60;94.70;;;;;;4732476;30;20041;-75
2021/01/27 00:53:56;;;;;;;1.65;0.40;;;6.60;95.30;;;;;;4731203;30;20090;-74
2021/01/27 00:56:22;;;;;;;3.70;0.80;;;6.60;95.30;;;;;;4730513;30;20111;-74
2021/01/27 00:58:50;;;;;;;9.32;0.98;;;6.60;95.40;;;;;;4731650;30;20029;-75
2021/01/27 01:01:29;;;;;;;3.50;0.80;;;6.60;95.50;;;;;;4730598;30;20036;-76
2021/01/27 01:03:55;;;;;;;1.08;0.50;;;6.70;95.20;;;;;;4730686;30;20035;-76
2021/01/27 01:06:21;;;;;;;4.85;0.80;;;6.70;95.50;;;;;;4728411;30;20032;-76
2021/01/27 01:08:48;;;;;;;2.50;0.90;;;6.70;95.50;;;;;;4729154;30;20102;-77
2021/01/27 01:11:14;;;;;;;2.88;1.38;;;6.70;96.00;;;;;;4729164;30;20044;-76
2021/01/27 01:13:40;;;;;;;4.40;1.42;;;6.60;95.50;;;;;;4729828;30;20040;-76
2021/01/27 07:38:35;;;;;;;3.10;1.05;;;6.80;94.30;;;;;;4498227;24;20142;-74
2021/01/27 07:41:08;;;;;;;3.63;0.80;;;6.90;94.30;;;;;;4742487;30;20120;-72
2021/01/27 07:44:05;;;;;;;1.85;0.82;;;7.00;94.20;;;;;;4744293;30;20531;-73
2021/01/27 07:46:40;;;;;;;3.28;1.02;;;7.10;94.50;;;;;;4742632;30;20460;-73
2021/01/27 07:49:06;;;;;;;3.67;0.60;;;7.20;94.70;;;;;;4740094;30;20039;-74
2021/01/27 07:51:58;;;;;;;12.30;0.98;;;7.30;94.50;;;;;;4741642;30;20657;-74
2021/01/27 07:54:36;;;;;;;3.03;0.50;;;7.40;93.90;;;;;;4741375;30;20028;-74
2021/01/27 07:57:42;;;;;;;3.00;0.57;;;7.50;94.40;;;;;;4741432;30;20071;-75
2021/01/27 08:00:22;;;;;;;1.50;0.82;;;7.50;93.60;;;;;;4739492;30;20057;-74
2021/01/27 08:02:57;;;;;;;1.30;0.82;;;7.60;93.40;;;;;;4740556;30;20109;-74
2021/01/27 08:05:36;;;;;;;1.90;0.60;;;7.70;93.40;;;;;;4738120;30;20540;-75
2021/01/27 08:08:08;;;;;;;2.22;0.63;;;7.70;93.80;;;;;;4745143;30;20028;-75
2021/01/27 08:10:36;;;;;;;1.42;0.55;;;7.80;93.60;;;;;;4744270;30;20028;-75
2021/01/27 08:13:07;;;;;;;1.70;0.45;;;7.90;93.00;;;;;;4738222;30;20550;-78
2021/01/27 08:15:58;;;;;;;6.53;1.05;;;8.00;93.30;;;;;;4739405;30;20482;-75
2021/01/27 08:18:25;;;;;;;2.50;0.90;;;8.10;93.10;;;;;;4745709;30;20068;-75
2021/01/27 08:21:29;;;;;;;21.95;7.75;;;8.10;93.10;;;;;;4738703;30;20035;-75
2021/01/27 08:23:55;;;;;;;4.60;2.20;;;8.20;93.30;;;;;;4738924;30;20521;-74
2021/01/27 08:26:43;;;;;;;18.85;9.30;;;7.90;97.00;;;;;;4741755;30;20056;-74
2021/01/27 08:29:11;;;;;;;3.22;1.80;;;7.20;98.80;;;;;;4738364;30;20490;-74
2021/01/27 08:31:38;;;;;;;3.63;2.03;;;7.00;99.80;;;;;;4737321;30;20349;-74
2021/01/27 08:34:04;;;;;;;3.53;1.20;;;6.70;99.90;;;;;;4742015;30;20398;-75
2021/01/27 08:36:33;;;;;;;7.07;2.53;;;6.40;99.90;;;;;;4741428;30;20098;-75
2021/01/27 08:39:06;;;;;;;2.45;1.00;;;6.30;99.90;;;;;;4738616;30;20490;-74
2021/01/27 08:41:50;;;;;;;1.02;0.65;;;6.40;99.90;;;;;;4741677;30;20144;-74
2021/01/27 08:44:19;;;;;;;5.95;1.35;;;6.40;99.90;;;;;;4740863;30;20028;-73
2021/01/27 08:46:50;;;;;;;3.08;1.27;;;6.60;99.90;;;;;;4737699;30;20043;-74
2021/01/27 08:49:35;;;;;;;4.95;1.70;;;6.70;99.90;;;;;;4739479;30;20039;-74
2021/01/27 08:52:22;;;;;;;2.53;1.10;;;6.70;99.90;;;;;;4737205;30;20110;-74
2021/01/27 08:54:51;;;;;;;2.92;1.00;;;7.00;99.90;;;;;;4737992;30;20055;-75
2021/01/27 08:57:27;;;;;;;5.05;0.80;;;7.10;99.90;;;;;;4738515;30;20048;-74
2021/01/27 09:00:00;;;;;;;1.15;0.43;;;7.30;99.90;;;;;;4738914;30;20042;-74
2021/01/27 09:02:47;;;;;;;4.05;1.30;;;7.30;99.90;;;;;;4738330;30;20035;-74
2021/01/27 09:05:19;;;;;;;3.15;1.10;;;7.40;99.90;;;;;;4742332;30;20036;-75
2021/01/27 09:07:49;;;;;;;2.95;0.82;;;7.50;99.90;;;;;;4736391;30;20032;-74
2021/01/27 09:10:17;;;;;;;1.20;0.98;;;7.40;99.90;;;;;;4737845;30;20046;-74
2021/01/27 09:12:46;;;;;;;3.40;1.30;;;7.50;99.90;;;;;;4740562;30;21336;-74
2021/01/27 09:15:23;;;;;;;3.65;0.93;;;7.60;99.90;;;;;;4739360;30;20040;-75
2021/01/27 09:17:50;;;;;;;2.75;1.10;;;7.60;99.90;;;;;;4741201;30;20040;-74
2021/01/27 09:20:24;;;;;;;1.52;1.20;;;7.80;99.90;;;;;;4738793;30;20041;-74
2021/01/27 09:23:00;;;;;;;3.80;0.93;;;7.80;99.90;;;;;;4739959;30;20063;-75
2021/01/27 09:25:27;;;;;;;2.45;1.20;;;7.70;99.90;;;;;;4737557;30;20025;-74
2021/01/27 09:28:06;;;;;;;1.77;0.95;;;7.80;99.90;;;;;;4736407;30;20115;-75
2021/01/27 09:30:34;;;;;;;3.97;1.58;;;7.80;99.90;;;;;;4740173;30;20091;-74
2021/01/27 09:33:26;;;;;;;1.92;1.00;;;7.80;99.90;;;;;;4740162;30;20477;-79
2021/01/27 09:36:10;;;;;;;3.45;2.00;;;7.90;99.90;;;;;;4742975;30;20079;-74
2021/01/27 09:38:38;;;;;;;;;;;8.10;99.90;;;;;;4743183;30;20090;-75
2021/01/27 09:41:12;;;;;;;2.60;0.90;;;8.10;99.90;;;;;;4738585;30;19990;-74
2021/01/27 09:43:44;;;;;;;1.73;1.00;;;8.20;99.90;;;;;;4740583;30;20561;-74
2021/01/27 09:46:19;;;;;;;2.42;1.00;;;8.30;99.90;;;;;;4740274;30;20111;-74
2021/01/27 09:48:46;;;;;;;3.17;0.90;;;8.40;99.90;;;;;;4739050;30;20041;-74
2021/01/27 09:51:14;;;;;;;0.82;0.80;;;8.50;99.90;;;;;;4740958;30;20447;-74
2021/01/27 09:53:42;;;;;;;2.60;0.85;;;8.60;99.70;;;;;;4742756;30;20052;-74
2021/01/27 09:56:10;;;;;;;2.55;0.80;;;8.70;99.90;;;;;;4738826;30;20133;-75
2021/01/27 09:58:40;;;;;;;5.45;0.90;;;8.80;99.80;;;;;;4745298;30;20066;-81
2021/01/27 10:01:15;;;;;;;3.15;1.10;;;8.90;99.90;;;;;;4740009;30;20107;-75
2021/01/27 10:03:43;;;;;;;3.50;1.35;;;8.90;98.90;;;;;;4735851;30;20055;-74
2021/01/27 10:06:38;;;;;;;3.20;1.17;;;9.20;99.60;;;;;;4743273;30;20111;-74
2021/01/27 10:09:27;;;;;;;1.98;0.90;;;9.10;99.60;;;;;;4740666;30;20062;-74
2021/01/27 10:12:04;;;;;;;1.50;1.00;;;8.90;99.50;;;;;;4738975;30;20037;-75
2021/01/27 10:14:32;;;;;;;6.70;0.77;;;8.90;99.90;;;;;;4744301;30;20044;-75
2021/01/27 10:17:02;;;;;;;4.43;1.40;;;9.20;99.90;;;;;;4744865;30;20434;-74
2021/01/27 10:19:31;;;;;;;2.70;1.23;;;9.20;99.30;;;;;;4741290;30;20032;-76
2021/01/27 10:22:01;;;;;;;1.85;0.90;;;8.80;99.70;;;;;;4741518;30;20455;-83
2021/01/27 10:24:42;;;;;;;1.23;0.65;;;8.50;99.90;;;;;;4745731;30;20446;-74
2021/01/27 10:27:08;;;;;;;0.80;0.38;;;8.20;99.90;;;;;;4742321;30;20072;-74
2021/01/27 10:29:38;;;;;;;1.90;0.40;;;8.00;99.90;;;;;;4747892;30;20485;-74
2021/01/27 10:32:21;;;;;;;1.58;0.68;;;8.00;99.80;;;;;;4742171;30;20041;-81
2021/01/27 10:34:49;;;;;;;0.95;0.75;;;8.20;99.40;;;;;;4744626;30;20040;-74
2021/01/27 10:37:36;;;;;;;0.40;0.28;;;8.20;99.70;;;;;;4742179;30;20638;-77
2021/01/27 10:40:08;;;;;;;2.50;0.30;;;7.80;99.10;;;;;;4743970;30;20060;-73
2021/01/27 10:42:36;;;;;;;1.80;0.57;;;7.40;99.20;;;;;;4745592;30;20086;-73
2021/01/27 10:45:21;;;;;;;1.08;0.50;;;7.20;99.90;;;;;;4740772;30;20433;-79
2021/01/27 10:47:59;;;;;;;1.13;0.57;;;7.10;99.90;;;;;;4742348;30;20028;-73
2021/01/27 10:50:26;;;;;;;0.98;0.80;;;6.90;99.90;;;;;;4744733;30;20032;-73
2021/01/27 10:52:53;;;;;;;3.72;0.68;;;6.80;99.90;;;;;;4741569;30;20059;-74
2021/01/27 10:55:20;;;;;;;1.17;0.30;;;6.70;99.90;;;;;;4743082;30;20040;-74
2021/01/27 10:57:47;;;;;;;0.75;0.55;;;6.50;99.90;;;;;;4741960;30;20490;-73
2021/01/27 11:00:16;;;;;;;0.65;0.50;;;6.40;99.90;;;;;;4739616;30;20040;-74
2021/01/27 11:02:43;;;;;;;2.28;0.93;;;6.50;99.90;;;;;;4742080;30;20494;-73
2021/01/27 11:05:11;;;;;;;0.88;0.40;;;6.80;99.90;;;;;;4741574;30;20119;-74
2021/01/27 11:07:37;;;;;;;0.30;0.30;;;7.30;99.90;;;;;;4742084;30;20028;-74
2021/01/27 11:10:03;;;;;;;1.95;0.63;;;7.60;99.90;;;;;;4744091;30;20032;-73
2021/01/27 11:12:30;;;;;;;0.47;0.38;;;7.30;99.90;;;;;;4740163;30;20063;-74
2021/01/27 11:14:56;;;;;;;1.33;0.68;;;6.90;99.90;;;;;;4741474;30;20040;-73
2021/01/27 11:17:21;;;;;;;0.43;0.30;;;6.90;99.90;;;;;;4743767;30;20464;-74
2021/01/27 11:19:48;;;;;;;1.45;0.55;;;6.80;99.90;;;;;;4742641;30;20072;-74
2021/01/27 11:22:14;;;;;;;2.25;0.82;;;6.90;99.90;;;;;;4741234;30;20068;-74
2021/01/27 11:24:40;;;;;;;0.82;0.73;;;7.00;99.90;;;;;;4741401;30;20435;-74
2021/01/27 11:27:06;;;;;;;0.82;0.60;;;7.10;99.90;;;;;;4741120;30;20033;-74
2021/01/27 11:29:32;;;;;;;0.73;0.40;;;7.10;99.90;;;;;;4741989;30;20033;-75
2021/01/27 11:31:58;;;;;;;1.55;0.50;;;7.10;99.90;;;;;;4743931;30;20043;-75
2021/01/27 11:34:24;;;;;;;0.55;0.47;;;6.90;99.90;;;;;;4742194;30;21476;-74
2021/01/27 11:36:50;;;;;;;0.40;0.30;;;6.80;99.90;;;;;;4739999;30;20055;-75
2021/01/27 11:39:16;;;;;;;0.55;0.40;;;6.70;99.90;;;;;;4740043;30;20501;-81
2021/01/27 11:41:42;;;;;;;1.88;0.50;;;6.70;99.90;;;;;;4745331;30;20032;-74
2021/01/27 11:44:09;;;;;;;0.80;0.60;;;6.70;99.90;;;;;;4740342;30;20032;-75
2021/01/27 11:46:35;;;;;;;2.13;0.77;;;6.90;99.90;;;;;;4741024;30;20032;-75
2021/01/27 11:49:02;;;;;;;8.02;4.22;;;7.10;99.90;;;;;;4739490;30;20074;-74
2021/01/27 11:51:28;;;;;;;12.85;6.82;;;7.30;99.90;;;;;;4745071;30;20054;-75
2021/01/27 11:53:54;;;;;;;7.30;4.15;;;7.40;99.90;;;;;;4741263;30;20382;-75
2021/01/27 11:56:20;;;;;;;0.90;0.82;;;7.40;99.90;;;;;;4741665;30;20025;-74
2021/01/27 11:58:46;;;;;;;3.58;0.65;;;7.60;99.90;;;;;;4739119;30;20071;-74
2021/01/27 12:01:12;;;;;;;4.10;2.60;;;7.60;99.90;;;;;;4742660;30;20040;-75
2021/01/27 12:03:38;;;;;;;1.00;0.88;;;7.90;99.90;;;;;;4736563;30;20079;-75
2021/01/27 12:06:05;;;;;;;1.67;1.13;;;8.30;99.90;;;;;;4744263;30;20024;-74
2021/01/27 12:08:32;;;;;;;4.22;2.75;;;8.60;99.90;;;;;;4743605;30;20036;-75
2021/01/27 12:10:58;;;;;;;6.07;1.48;;;9.00;99.90;;;;;;4744677;30;20482;-75
2021/01/27 12:13:24;;;;;;;3.10;1.80;;;9.30;99.90;;;;;;4741856;30;20086;-74
2021/01/27 12:15:51;;;;;;;1.65;0.68;;;9.20;99.90;;;;;;4740804;30;20056;-74
2021/01/27 12:18:18;;;;;;;0.57;0.52;;;9.40;97.70;;;;;;4740707;30;20036;-75
2021/01/27 12:20:46;;;;;;;0.85;0.82;;;9.40;96.70;;;;;;4744472;30;20032;-74
2021/01/27 12:23:13;;;;;;;1.30;0.50;;;9.50;96.50;;;;;;4740249;30;20446;-73
2021/01/27 12:25:40;;;;;;;8.00;1.00;;;9.50;96.90;;;;;;4738541;30;20375;-74
2021/01/27 12:28:06;;;;;;;1.13;0.40;;;9.70;95.90;;;;;;4741389;30;20029;-74
2021/01/27 12:30:32;;;;;;;1.15;0.70;;;10.00;96.00;;;;;;4738808;30;20037;-74
2021/01/27 12:32:59;;;;;;;1.58;0.45;;;10.20;95.30;;;;;;4741517;30;20028;-74
2021/01/27 12:35:26;;;;;;;0.90;0.50;;;10.30;94.80;;;;;;4739271;30;20382;-74
2021/01/27 12:37:55;;;;;;;1.20;0.65;;;10.00;93.50;;;;;;4742154;30;20048;-74
2021/01/27 12:40:22;;;;;;;1.65;0.60;;;9.60;94.60;;;;;;4744498;30;20052;-74
2021/01/27 12:42:50;;;;;;;1.25;0.50;;;9.20;94.20;;;;;;4749416;30;20050;-75
2021/01/27 12:45:18;;;;;;;9.48;4.50;;;9.00;95.30;;;;;;4749504;30;20036;-76
2021/01/27 12:47:44;;;;;;;9.02;3.45;;;8.90;96.20;;;;;;4733241;30;20132;-73
2021/01/27 12:50:12;;;;;;;5.63;3.22;;;8.60;97.00;;;;;;4732682;30;20025;-77
2021/01/27 12:52:39;;;;;;;5.72;3.08;;;8.10;99.50;;;;;;4732530;30;20032;-74
2021/01/27 12:55:09;;;;;;;4.65;2.30;;;7.60;99.90;;;;;;4732587;30;20044;-74
2021/01/27 12:57:38;;;;;;;13.93;4.90;;;7.20;99.90;;;;;;4746116;30;20138;-74
2021/01/27 13:00:07;;;;;;;2.10;1.05;;;7.00;99.90;;;;;;4749900;30;20032;-74
2021/01/27 13:02:35;;;;;;;2.17;0.88;;;6.90;99.90;;;;;;4750176;30;20048;-74
2021/01/27 13:05:04;;;;;;;4.00;2.42;;;6.80;99.90;;;;;;4732610;30;20451;-74
2021/01/27 13:07:32;;;;;;;3.60;1.75;;;6.80;99.90;;;;;;4742557;30;20040;-74
2021/01/27 13:09:58;;;;;;;1.55;0.68;;;6.70;99.90;;;;;;4749808;30;20024;-84
2021/01/27 13:12:25;;;;;;;3.13;1.05;;;6.70;99.90;;;;;;4747502;30;20028;-86
2021/01/27 13:14:52;;;;;;;2.55;1.73;;;6.70;99.90;;;;;;4737981;30;20119;-73
2021/01/27 13:17:18;;;;;;;5.93;3.42;;;6.60;99.90;;;;;;4738395;30;20091;-74
2021/01/27 13:19:45;;;;;;;4.80;2.58;;;6.40;99.90;;;;;;4741435;30;20035;-74
2021/01/27 13:22:11;;;;;;;5.03;2.67;;;6.40;99.90;;;;;;4742431;30;20032;-74
2021/01/27 13:24:37;;;;;;;1.75;1.00;;;6.40;99.90;;;;;;4742631;30;20062;-74
2021/01/27 13:27:04;;;;;;;2.00;1.40;;;6.50;99.90;;;;;;4743992;30;20356;-73
2021/01/27 13:29:31;;;;;;;1.55;0.60;;;6.50;99.90;;;;;;4741665;30;20040;-73
2021/01/27 13:31:57;;;;;;;2.08;0.90;;;6.50;99.90;;;;;;4737259;30;20079;-74
2021/01/27 13:34:23;;;;;;;10.38;3.50;;;6.40;99.90;;;;;;4738788;30;20032;-74
2021/01/27 13:36:49;;;;;;;2.40;0.98;;;6.30;99.90;;;;;;4741786;30;20057;-74
2021/01/27 13:39:17;;;;;;;1.30;0.73;;;6.20;99.90;;;;;;4738420;30;20048;-74
2021/01/27 13:41:44;;;;;;;5.32;1.55;;;6.20;99.90;;;;;;4739750;30;20903;-73
2021/01/27 13:44:10;;;;;;;1.95;0.90;;;6.20;99.90;;;;;;4743202;30;20029;-74
2021/01/27 13:46:36;;;;;;;2.08;0.93;;;6.30;99.90;;;;;;4737687;30;20032;-74
2021/01/27 13:49:02;;;;;;;1.65;0.90;;;6.30;99.90;;;;;;4739713;30;20036;-77
2021/01/27 13:51:28;;;;;;;1.48;1.08;;;6.30;99.90;;;;;;4739237;30;20123;-76
2021/01/27 13:53:54;;;;;;;1.80;1.20;;;6.40;99.90;;;;;;4739678;30;20128;-76
2021/01/27 13:56:22;;;;;;;2.03;0.77;;;6.50;99.90;;;;;;4740316;30;20177;-76
2021/01/27 13:58:48;;;;;;;2.03;0.80;;;6.60;99.90;;;;;;4734896;30;20036;-76
2021/01/27 14:01:14;;;;;;;1.17;0.65;;;6.70;99.90;;;;;;4736995;30;20035;-76
2021/01/27 14:03:40;;;;;;;4.57;1.02;;;6.90;99.90;;;;;;4740821;30;20502;-76
2021/01/27 14:06:07;;;;;;;2.15;0.95;;;7.20;99.90;;;;;;4740139;30;20024;-76
2021/01/27 14:08:35;;;;;;;3.50;0.90;;;7.50;99.90;;;;;;4742233;30;20371;-77
2021/01/27 14:11:03;;;;;;;1.40;0.60;;;8.00;99.90;;;;;;4739539;30;20041;-76
2021/01/27 14:13:29;;;;;;;4.43;0.70;;;8.20;99.90;;;;;;4744390;30;20028;-76
2021/01/27 14:15:55;;;;;;;2.75;1.25;;;8.40;99.90;;;;;;4740986;30;20043;-76
2021/01/27 14:18:21;;;;;;;1.25;0.40;;;8.60;99.90;;;;;;4740622;30;20182;-76
2021/01/27 14:20:47;;;;;;;1.08;0.77;;;8.50;99.90;;;;;;4738050;30;20115;-76
2021/01/27 14:23:14;;;;;;;1.02;0.50;;;8.30;99.90;;;;;;4736518;30;20036;-74
2021/01/27 14:25:40;;;;;;;0.20;0.20;;;8.10;99.90;;;;;;4739934;30;20097;-73
2021/01/27 14:28:06;;;;;;;1.27;0.30;;;7.70;99.90;;;;;;4741392;30;20478;-73
2021/01/27 14:30:35;;;;;;;0.82;0.25;;;7.30;99.90;;;;;;4742561;30;20414;-73
2021/01/27 14:33:01;;;;;;;0.20;0.20;;;6.90;99.90;;;;;;4738280;30;20084;-77
2021/01/27 14:35:28;;;;;;;0.70;0.43;;;6.70;99.90;;;;;;4737466;30;20490;-74
2021/01/27 14:37:55;;;;;;;0.95;0.30;;;6.60;99.90;;;;;;4734991;30;20076;-75
2021/01/27 14:40:22;;;;;;;1.55;0.63;;;6.50;99.90;;;;;;4738871;30;20052;-79
2021/01/27 14:42:48;;;;;;;4.82;0.68;;;6.50;99.90;;;;;;4741047;30;20489;-76
2021/01/27 14:45:15;;;;;;;0.93;0.40;;;6.40;99.90;;;;;;4736508;30;20060;-78
2021/01/27 14:47:42;;;;;;;4.45;2.58;;;6.30;99.90;;;;;;4737222;30;20048;-72
2021/01/27 14:50:12;;;;;;;1.35;0.73;;;6.30;99.90;;;;;;4737221;30;20133;-72
2021/01/27 14:52:39;;;;;;;4.13;2.10;;;6.30;99.90;;;;;;4737790;30;20039;-72
2021/01/27 14:55:06;;;;;;;1.10;0.60;;;6.20;99.90;;;;;;4742588;30;20036;-75
2021/01/27 14:57:32;;;;;;;0.32;0.30;;;6.10;99.90;;;;;;4741047;30;20055;-73
2021/01/27 14:59:59;;;;;;;2.15;0.45;;;6.00;99.90;;;;;;4741169;30;20029;-72
2021/01/27 15:02:25;;;;;;;1.20;0.40;;;5.90;99.90;;;;;;4746065;30;20079;-73
2021/01/27 15:04:52;;;;;;;1.45;1.33;;;5.90;99.90;;;;;;4741963;30;20111;-77
2021/01/27 15:07:19;;;;;;;1.30;0.90;;;5.80;99.90;;;;;;4738849;30;20102;-72
2021/01/27 15:09:46;;;;;;;1.52;0.95;;;5.80;99.90;;;;;;4743490;30;20032;-72
2021/01/27 15:12:13;;;;;;;0.60;0.60;;;5.90;99.90;;;;;;4741570;30;20040;-73
2021/01/27 15:14:39;;;;;;;0.73;0.70;;;6.00;99.90;;;;;;4745897;30;20111;-72
2021/01/27 15:17:06;;;;;;;2.03;1.15;;;6.00;99.90;;;;;;4743875;30;20041;-72
2021/01/27 15:19:32;;;;;;;3.05;1.65;;;6.00;99.90;;;;;;4741715;30;20033;-72
2021/01/27 15:21:58;;;;;;;5.72;0.73;;;6.10;99.90;;;;;;4743900;30;20039;-77
2021/01/27 15:24:24;;;;;;;2.92;1.52;;;6.20;99.90;;;;;;4743115;30;20090;-73
2021/01/27 15:26:50;;;;;;;0.47;0.35;;;6.20;99.90;;;;;;4741791;30;20040;-84
2021/01/27 15:29:18;;;;;;;1.63;0.50;;;6.30;99.90;;;;;;4743487;30;20043;-75
2021/01/27 15:31:44;;;;;;;1.48;0.60;;;6.30;99.90;;;;;;4741157;30;20507;-75
2021/01/27 15:34:10;;;;;;;1.13;0.52;;;6.30;99.90;;;;;;4737858;30;20038;-82
2021/01/27 15:36:36;;;;;;;0.95;0.50;;;6.30;99.90;;;;;;4752286;30;20044;-83
2021/01/27 15:39:04;;;;;;;1.75;0.63;;;6.20;99.90;;;;;;4746704;30;20048;-83
2021/01/27 15:41:30;;;;;;;1.08;0.85;;;6.10;99.90;;;;;;4746882;30;20059;-72
2021/01/27 15:43:56;;;;;;;3.25;0.88;;;6.10;99.90;;;;;;4741954;30;20119;-73
2021/01/27 15:46:22;;;;;;;1.05;0.65;;;6.10;99.90;;;;;;4741520;30;20036;-74
2021/01/27 15:48:49;;;;;;;1.00;0.50;;;6.00;99.90;;;;;;4735088;30;20397;-77
2021/01/27 15:51:16;;;;;;;0.80;0.43;;;6.00;99.90;;;;;;4741745;30;20036;-74
2021/01/27 15:53:44;;;;;;;3.80;0.80;;;6.00;99.90;;;;;;4742854;30;20192;-73
2021/01/27 15:56:10;;;;;;;2.20;1.00;;;5.90;99.90;;;;;;4742820;30;20040;-73
2021/01/27 15:58:36;;;;;;;2.47;1.85;;;5.90;99.90;;;;;;4743783;30;20032;-73
2021/01/27 16:01:03;;;;;;;3.58;1.10;;;5.90;99.90;;;;;;4740681;30;20104;-81
2021/01/27 16:03:29;;;;;;;2.20;0.90;;;5.90;99.90;;;;;;4743767;30;20512;-74
2021/01/27 16:05:55;;;;;;;1.77;1.05;;;6.00;99.90;;;;;;4738577;30;20082;-73
2021/01/27 16:08:22;;;;;;;1.70;1.60;;;6.00;99.90;;;;;;4746478;30;20042;-76
2021/01/27 16:10:48;;;;;;;4.43;2.17;;;6.10;99.90;;;;;;4749567;30;20137;-81
2021/01/27 16:13:14;;;;;;;1.25;0.90;;;6.20;99.90;;;;;;4749736;30;20191;-74
2021/01/27 16:15:41;;;;;;;2.03;1.02;;;6.20;99.90;;;;;;4750001;30;20127;-74
2021/01/27 16:18:10;;;;;;;1.48;1.15;;;6.20;99.90;;;;;;4746343;30;20637;-74
2021/01/27 16:20:37;;;;;;;2.80;1.10;;;6.20;99.90;;;;;;4737633;30;20040;-73
2021/01/27 16:23:03;;;;;;;1.63;0.93;;;6.20;99.90;;;;;;4743927;30;20122;-73
2021/01/27 16:25:32;;;;;;;4.30;2.00;;;6.20;99.90;;;;;;4744036;30;20407;-73
2021/01/27 16:27:59;;;;;;;6.68;1.95;;;6.20;99.90;;;;;;4742533;30;20093;-72
2021/01/27 16:30:26;;;;;;;3.00;1.33;;;6.20;99.90;;;;;;4742391;30;20067;-73
2021/01/27 16:32:52;;;;;;;5.95;1.90;;;6.20;99.90;;;;;;4743064;30;20516;-74
2021/01/27 16:35:22;;;;;;;4.78;1.73;;;6.20;99.90;;;;;;4740976;30;20107;-74
2021/01/27 16:37:48;;;;;;;5.70;2.47;;;6.20;99.90;;;;;;4741316;30;20052;-73
2021/01/27 16:40:16;;;;;;;5.05;2.47;;;6.10;99.90;;;;;;4741897;30;20044;-79
2021/01/27 16:42:42;;;;;;;5.40;2.65;;;6.10;99.90;;;;;;4741484;30;20033;-76
2021/01/27 16:45:09;;;;;;;5.10;1.98;;;6.00;99.90;;;;;;4738613;30;20045;-74
2021/01/27 16:47:35;;;;;;;6.10;1.88;;;5.90;99.90;;;;;;4742179;30;20082;-74
2021/01/27 16:50:02;;;;;;;2.70;1.40;;;5.80;99.90;;;;;;4740874;30;20032;-74
2021/01/27 16:52:29;;;;;;;2.85;1.25;;;5.80;99.90;;;;;;4740910;30;20032;-73
2021/01/27 16:54:56;;;;;;;2.03;1.60;;;5.80;99.90;;;;;;4736915;30;20028;-73
2021/01/27 16:57:22;;;;;;;4.25;2.08;;;5.80;99.90;;;;;;4738164;30;20041;-80
2021/01/27 16:59:48;;;;;;;4.35;2.10;;;5.80;99.90;;;;;;4745056;30;20398;-72
2021/01/27 17:02:14;;;;;;;3.20;1.40;;;5.80;99.90;;;;;;4740745;30;20032;-84
2021/01/27 17:04:40;;;;;;;5.78;1.67;;;5.70;99.90;;;;;;4741407;30;20044;-72
2021/01/27 17:07:06;;;;;;;2.50;2.05;;;5.70;99.90;;;;;;4743183;30;20512;-73
2021/01/27 17:09:32;;;;;;;4.32;1.75;;;5.70;99.90;;;;;;4743991;30;20052;-77
2021/01/27 17:11:58;;;;;;;6.32;2.50;;;5.70;99.90;;;;;;4743479;30;20078;-79
2021/01/27 17:14:25;;;;;;;4.47;2.72;;;5.70;99.90;;;;;;4744125;30;20082;-74
2021/01/27 17:16:51;;;;;;;3.25;2.15;;;5.70;99.90;;;;;;4740302;30;20036;-73
2021/01/27 17:19:17;;;;;;;3.05;1.30;;;5.70;99.90;;;;;;4740089;30;20118;-74
2021/01/27 17:21:45;;;;;;;3.00;1.20;;;5.60;99.90;;;;;;4741541;30;21361;-78
2021/01/27 17:24:12;;;;;;;4.60;2.58;;;5.60;99.90;;;;;;4739254;30;20073;-75
2021/01/27 17:26:39;;;;;;;6.90;2.08;;;5.60;99.90;;;;;;4735234;30;20047;-73
2021/01/27 17:29:06;;;;;;;4.35;2.30;;;5.60;99.90;;;;;;4738731;30;20033;-73
2021/01/27 17:31:33;;;;;;;2.40;1.60;;;5.60;99.90;;;;;;4739592;30;20118;-72
2021/01/27 17:33:59;;;;;;;3.05;1.40;;;5.60;99.90;;;;;;4742030;30;20032;-73
2021/01/27 17:36:27;;;;;;;2.88;1.40;;;5.60;99.90;;;;;;4738839;30;20049;-71
2021/01/27 17:38:53;;;;;;;3.20;2.10;;;5.50;99.90;;;;;;4737525;30;20511;-71
2021/01/27 17:41:21;;;;;;;1.70;1.05;;;5.50;99.90;;;;;;4741157;30;20134;-73
2021/01/27 17:43:51;;;;;;;2.67;0.90;;;5.50;99.90;;;;;;4738556;30;20036;-71
2021/01/27 17:46:17;;;;;;;2.33;0.88;;;5.50;99.90;;;;;;4738942;30;20036;-71
2021/01/27 17:48:44;;;;;;;1.77;1.08;;;5.50;99.90;;;;;;4739676;30;20102;-71
2021/01/27 17:51:11;;;;;;;1.27;0.80;;;5.60;99.90;;;;;;4737651;30;20958;-71
2021/01/27 17:53:37;;;;;;;4.80;1.35;;;5.50;99.90;;;;;;4738984;30;20119;-72
2021/01/27 17:56:04;;;;;;;3.30;1.08;;;5.50;99.90;;;;;;4739903;30;20494;-72
2021/01/27 17:58:30;;;;;;;2.90;0.80;;;5.50;99.90;;;;;;4740666;30;20219;-75
2021/01/27 18:00:56;;;;;;;1.05;0.65;;;5.50;99.90;;;;;;4738743;30;20398;-71
2021/01/27 18:03:22;;;;;;;1.83;1.48;;;5.60;99.90;;;;;;4738298;30;20028;-72
2021/01/27 18:05:48;;;;;;;1.80;1.38;;;5.50;99.90;;;;;;4739003;30;20036;-71
2021/01/27 18:08:20;;;;;;;2.58;1.90;;;5.60;99.90;;;;;;4737818;30;20044;-72
2021/01/27 18:10:48;;;;;;;3.03;1.60;;;5.60;99.90;;;;;;4737088;30;20028;-74
2021/01/27 18:13:15;;;;;;;3.45;1.38;;;5.60;99.90;;;;;;4741674;30;20035;-72
2021/01/27 18:15:42;;;;;;;2.92;1.95;;;5.60;99.90;;;;;;4741401;30;20043;-72
2021/01/27 18:18:10;;;;;;;1.15;0.70;;;5.60;99.90;;;;;;4738893;30;20513;-71
2021/01/27 18:20:37;;;;;;;3.20;1.60;;;5.50;99.90;;;;;;4737713;30;20419;-72
2021/01/27 18:23:04;;;;;;;3.85;1.08;;;5.60;99.90;;;;;;4740383;30;20504;-72
2021/01/27 18:25:33;;;;;;;1.83;1.27;;;5.50;99.90;;;;;;4739039;30;20067;-71
2021/01/27 18:27:59;;;;;;;2.92;1.25;;;5.50;99.90;;;;;;4740550;30;20046;-72
2021/01/27 18:30:27;;;;;;;14.55;1.25;;;5.50;99.90;;;;;;4736215;30;20405;-71
2021/01/27 18:32:55;;;;;;;1.75;1.13;;;5.50;99.90;;;;;;4741162;30;20059;-71
2021/01/27 18:35:24;;;;;;;2.55;1.00;;;5.50;99.90;;;;;;4742295;30;20044;-71
2021/01/27 18:37:50;;;;;;;2.38;1.80;;;5.50;99.90;;;;;;4744061;30;20102;-71
2021/01/27 18:40:20;;;;;;;1.85;1.35;;;5.50;99.90;;;;;;4738724;30;20124;-71
2021/01/27 18:42:47;;;;;;;0.95;0.80;;;5.50;99.90;;;;;;4744223;30;20112;-72
2021/01/27 18:45:16;;;;;;;24.33;1.75;;;5.40;99.90;;;;;;4742988;30;20099;-71
2021/01/27 18:47:42;;;;;;;2.45;1.23;;;5.40;99.90;;;;;;4743404;30;20040;-72
2021/01/27 18:50:09;;;;;;;2.03;1.05;;;5.30;99.90;;;;;;4741681;30;20029;-71
2021/01/27 18:52:36;;;;;;;5.35;2.47;;;5.30;99.90;;;;;;4743647;30;20507;-72
2021/01/27 18:55:04;;;;;;;4.93;2.40;;;5.20;99.90;;;;;;4743596;30;20045;-72
2021/01/27 18:57:30;;;;;;;14.80;6.78;;;5.20;99.90;;;;;;4742747;30;20379;-71
2021/01/27 18:59:57;;;;;;;9.30;2.90;;;5.10;99.90;;;;;;4745901;30;20032;-71
2021/01/27 19:02:23;;;;;;;3.35;1.73;;;5.10;99.90;;;;;;4745218;30;20453;-71
2021/01/27 19:04:49;;;;;;;5.55;1.92;;;5.10;99.90;;;;;;4746379;30;20403;-71
2021/01/27 19:07:15;;;;;;;3.58;2.35;;;5.20;99.90;;;;;;4744265;30;20036;-70
2021/01/27 19:09:41;;;;;;;3.10;1.45;;;5.20;99.90;;;;;;4743165;30;20391;-70
2021/01/27 19:12:08;;;;;;;3.80;1.15;;;5.20;99.90;;;;;;4744989;30;20040;-72
2021/01/27 19:14:34;;;;;;;2.75;1.30;;;5.30;99.90;;;;;;4743171;30;20033;-71
2021/01/27 19:17:07;;;;;;;2.47;1.00;;;5.30;99.90;;;;;;4741068;30;20048;-71
2021/01/27 19:19:35;;;;;;;3.42;1.85;;;5.30;99.90;;;;;;4746538;30;20127;-72
2021/01/27 19:22:02;;;;;;;2.22;1.20;;;5.30;99.90;;;;;;4738274;30;20036;-71
2021/01/27 19:24:30;;;;;;;3.85;1.65;;;5.30;99.90;;;;;;4743296;30;20025;-72
2021/01/27 19:26:57;;;;;;;4.75;2.00;;;5.30;99.90;;;;;;4741941;30;20039;-72